createdAt,value
2022-12-04T00:00:44.399Z,99695.52
2022-12-04T00:02:51.935Z,99696.27
2022-12-04T00:04:56.809Z,99697.50
2022-12-04T00:07:01.710Z,99693.82
2022-12-04T00:09:07.575Z,99695.45
2022-12-04T00:11:14.036Z,99697.89
2022-12-04T00:13:18.712Z,99698.76
2022-12-04T00:15:25.526Z,99696.70
2022-12-04T00:17:30.573Z,99696.59
2022-12-04T00:19:35.317Z,99698.39
2022-12-04T00:21:40.068Z,99697.57
2022-12-04T00:23:44.983Z,99697.20
2022-12-04T00:25:49.849Z,99698.06
2022-12-04T00:27:54.532Z,99700.05
2022-12-04T00:29:59.256Z,99703.18
2022-12-04T00:32:04.027Z,99703.09
2022-12-04T00:34:08.788Z,99705.98
2022-12-04T00:36:15.691Z,99699.69
2022-12-04T00:38:20.353Z,99698.97
2022-12-04T00:40:25.072Z,99695.42
2022-12-04T00:42:29.731Z,99699.83
2022-12-04T00:44:34.454Z,99695.95
2022-12-04T00:46:39.115Z,99694.17
2022-12-04T00:48:44.221Z,99694.77
2022-12-04T00:50:48.909Z,99694.64
2022-12-04T00:52:53.535Z,99694.34
2022-12-04T00:54:58.242Z,99698.96
2022-12-04T00:57:02.948Z,99701.11
2022-12-04T00:59:07.541Z,99704.20
2022-12-04T01:01:14.282Z,99708.50
2022-12-04T01:03:19.139Z,99711.80
2022-12-04T01:05:24.136Z,99711.53
2022-12-04T01:07:28.897Z,99713.09
2022-12-04T01:09:33.613Z,99717.67
2022-12-04T01:11:38.219Z,99711.99
2022-12-04T01:13:42.940Z,99706.15
2022-12-04T01:15:47.629Z,99707.93
2022-12-04T01:17:52.300Z,99705.59
2022-12-04T01:19:57.318Z,99708.44
2022-12-04T01:22:02.151Z,99701.66
2022-12-04T01:24:10.355Z,99700.73
2022-12-04T01:26:15.526Z,99702.31
2022-12-04T01:28:20.182Z,99702.70
2022-12-04T01:30:24.858Z,99702.23
2022-12-04T01:32:30.125Z,99701.45
2022-12-04T01:34:35.970Z,99695.09
2022-12-04T01:36:40.576Z,99694.27
2022-12-04T01:38:45.482Z,99692.42
2022-12-04T01:40:50.433Z,99688.16
2022-12-04T01:42:55.042Z,99689.30
2022-12-04T01:45:36.266Z,99690.34
2022-12-04T01:47:40.953Z,99686.54
2022-12-04T01:49:48.084Z,99689.28
2022-12-04T01:51:56.209Z,99683.73
2022-12-04T01:54:03.932Z,99687.11
2022-12-04T01:56:10.855Z,99689.02
2022-12-04T01:58:17.599Z,99690.48
2022-12-04T02:00:22.937Z,99693.95
2022-12-04T02:02:32.555Z,99692.58
2022-12-04T02:04:38.721Z,99701.98
2022-12-04T02:06:43.469Z,99702.12
2022-12-04T02:08:48.268Z,99702.61
2022-12-04T02:11:04.937Z,99695.58
2022-12-04T02:13:16.860Z,99694.62
2022-12-04T02:15:28.620Z,99689.23
2022-12-04T02:17:40.525Z,99691.11
2022-12-04T02:20:07.541Z,99692.76
2022-12-04T02:22:24.537Z,99694.75
2022-12-04T02:24:49.815Z,99693.95
2022-12-04T02:27:01.314Z,99685.72
2022-12-04T02:29:12.074Z,99688.52
2022-12-04T02:31:20.697Z,99694.02
2022-12-04T02:33:29.699Z,99692.93
2022-12-04T02:35:37.329Z,99689.23
2022-12-04T02:37:45.705Z,99685.06
2022-12-04T02:39:56.923Z,99687.64
2022-12-04T02:42:08.092Z,99687.39
2022-12-04T02:44:19.508Z,99684.78
2022-12-04T02:46:28.833Z,99687.83
2022-12-04T02:48:40.166Z,99683.00
2022-12-04T02:50:46.985Z,99686.80
2022-12-04T02:52:55.744Z,99688.36
2022-12-04T02:55:08.670Z,99683.33
2022-12-04T02:57:18.790Z,99682.90
2022-12-04T02:59:29.283Z,99679.63
2022-12-04T03:01:38.227Z,99673.50
2022-12-04T03:03:43.277Z,99664.90
2022-12-04T03:05:55.682Z,99663.48
2022-12-04T03:08:04.305Z,99667.31
2022-12-04T03:10:13.411Z,99663.27
2022-12-04T03:12:24.301Z,99661.05
2022-12-04T03:14:32.577Z,99665.80
2022-12-04T03:16:41.139Z,99669.18
2022-12-04T03:18:49.955Z,99666.02
2022-12-04T03:20:58.059Z,99671.08
2022-12-04T03:23:09.719Z,99670.41
2022-12-04T03:25:14.568Z,99676.73
2022-12-04T03:27:26.244Z,99674.95
2022-12-04T03:29:35.719Z,99673.39
2022-12-04T03:31:46.123Z,99667.77
2022-12-04T03:33:56.337Z,99668.56
2022-12-04T03:36:07.758Z,99665.23
2022-12-04T03:38:18.655Z,99667.63
2022-12-04T03:40:28.554Z,99670.02
2022-12-04T03:42:40.925Z,99673.20
2022-12-04T03:44:49.865Z,99669.86
2022-12-04T03:46:59.980Z,99669.76
2022-12-04T03:49:13.068Z,99671.61
2022-12-04T03:51:22.370Z,99667.01
2022-12-04T03:53:32.577Z,99670.91
2022-12-04T03:55:44.384Z,99668.77
2022-12-04T03:57:51.575Z,99664.02
2022-12-04T04:00:01.913Z,99660.02
2022-12-04T04:02:14.064Z,99660.33
2022-12-04T04:04:23.140Z,99666.81
2022-12-04T04:06:32.632Z,99665.52
2022-12-04T04:08:42.743Z,99659.27
2022-12-04T04:10:48.643Z,99653.50
2022-12-04T04:12:59.966Z,99649.52
2022-12-04T04:15:12.394Z,99646.39
2022-12-04T04:17:22.489Z,99650.17
2022-12-04T04:19:32.547Z,99648.82
2022-12-04T04:21:38.939Z,99650.02
2022-12-04T04:23:46.769Z,99651.46
2022-12-04T04:25:52.977Z,99654.59
2022-12-04T04:27:59.938Z,99657.83
2022-12-04T04:30:06.182Z,99653.16
2022-12-04T04:32:17.906Z,99653.77
2022-12-04T04:34:32.635Z,99646.80
2022-12-04T04:36:46.170Z,99648.35
2022-12-04T04:38:59.227Z,99654.14
2022-12-04T04:41:09.984Z,99652.07
2022-12-04T04:43:20.277Z,99643.91
2022-12-04T04:45:29.248Z,99642.45
2022-12-04T04:47:43.677Z,99642.33
2022-12-04T04:49:49.885Z,99642.39
2022-12-04T04:51:56.893Z,99637.79
2022-12-04T04:54:05.080Z,99641.33
2022-12-04T04:56:10.445Z,99643.55
2022-12-04T04:58:17.593Z,99643.25
2022-12-04T05:00:24.001Z,99645.34
2022-12-04T05:02:29.250Z,99644.55
2022-12-04T05:04:33.859Z,99645.37
2022-12-04T05:06:38.521Z,99646.16
2022-12-04T05:08:43.440Z,99642.36
2022-12-04T05:10:48.107Z,99647.48
2022-12-04T05:12:52.680Z,99643.52
2022-12-04T05:14:57.350Z,99643.70
2022-12-04T05:17:02.269Z,99643.48
2022-12-04T05:19:07.827Z,99640.04
2022-12-04T05:21:14.110Z,99640.30
2022-12-04T05:23:18.741Z,99639.74
2022-12-04T05:25:23.619Z,99638.58
2022-12-04T05:27:30.110Z,99643.92
2022-12-04T05:29:36.098Z,99641.83
2022-12-04T05:31:40.966Z,99650.92
2022-12-04T05:33:45.667Z,99655.29
2022-12-04T05:35:59.784Z,99654.65
2022-12-04T05:38:04.488Z,99655.92
2022-12-04T05:40:11.073Z,99655.65
2022-12-04T05:42:15.964Z,99654.56
2022-12-04T05:44:20.535Z,99649.73
2022-12-04T05:46:25.287Z,99646.69
2022-12-04T05:48:29.966Z,99649.20
2022-12-04T05:50:34.607Z,99654.83
2022-12-04T05:52:39.265Z,99657.74
2022-12-04T05:54:43.918Z,99656.49
2022-12-04T05:56:48.580Z,99664.55
2022-12-04T05:58:53.176Z,99661.68
2022-12-04T06:00:58.091Z,99661.38
2022-12-04T06:03:02.696Z,99659.29
2022-12-04T06:05:08.161Z,99660.94
2022-12-04T06:07:13.077Z,99665.29
2022-12-04T06:09:17.870Z,99664.86
2022-12-04T06:11:26.205Z,99665.27
2022-12-04T06:13:30.806Z,99669.01
2022-12-04T06:15:39.476Z,99675.98
2022-12-04T06:17:44.121Z,99673.90
2022-12-04T06:19:49.010Z,99677.63
2022-12-04T06:21:54.689Z,99675.90
2022-12-04T06:23:59.572Z,99674.95
2022-12-04T06:26:07.444Z,99675.56
2022-12-04T06:28:12.139Z,99673.44
2022-12-04T06:30:17.081Z,99672.48
2022-12-04T06:32:22.289Z,99676.54
2022-12-04T06:34:27.609Z,99679.83
2022-12-04T06:36:32.955Z,99679.98
2022-12-04T06:38:37.900Z,99677.84
2022-12-04T06:40:42.615Z,99676.65
2022-12-04T06:42:47.476Z,99675.73
2022-12-04T06:44:52.194Z,99670.50
2022-12-04T06:47:00.754Z,99672.81
2022-12-04T06:49:05.906Z,99673.45
2022-12-04T06:51:12.502Z,99675.98
2022-12-04T06:53:17.217Z,99672.78
2022-12-04T06:55:21.929Z,99674.80
2022-12-04T06:57:26.759Z,99678.65
2022-12-04T06:59:31.489Z,99677.73
2022-12-04T07:01:36.717Z,99684.15
2022-12-04T07:03:46.363Z,99686.42
2022-12-04T07:05:55.592Z,99693.21
2022-12-04T07:08:00.360Z,99689.73
2022-12-04T07:10:05.984Z,99690.49
2022-12-04T07:12:10.772Z,99698.30
2022-12-04T07:14:15.719Z,99697.57
2022-12-04T07:16:22.495Z,99692.73
2022-12-04T07:18:27.205Z,99689.17
2022-12-04T07:20:32.630Z,99697.79
2022-12-04T07:22:37.644Z,99697.38
2022-12-04T07:24:42.278Z,99703.92
2022-12-04T07:26:47.350Z,99706.48
2022-12-04T07:28:52.022Z,99708.00
2022-12-04T07:30:56.672Z,99704.84
2022-12-04T07:33:01.329Z,99699.60
2022-12-04T07:35:12.766Z,99702.23
2022-12-04T07:37:17.427Z,99704.90
2022-12-04T07:39:22.168Z,99705.82
2022-12-04T07:41:26.900Z,99700.08
2022-12-04T07:43:32.487Z,99699.59
2022-12-04T07:45:38.383Z,99702.73
2022-12-04T07:47:43.002Z,99701.30
2022-12-04T07:49:47.701Z,99696.73
2022-12-04T07:51:52.546Z,99693.73
2022-12-04T07:54:02.057Z,99690.63
2022-12-04T07:56:12.288Z,99692.38
2022-12-04T07:58:17.064Z,99695.81
2022-12-04T08:00:22.373Z,99698.33
2022-12-04T08:02:27.035Z,99701.37
2022-12-04T08:04:31.794Z,99700.80
2022-12-04T08:06:36.774Z,99700.40
2022-12-04T08:08:41.580Z,99707.82
2022-12-04T08:10:46.212Z,99711.45
2022-12-04T08:12:50.909Z,99712.03
2022-12-04T08:14:55.652Z,99714.48
2022-12-04T08:17:00.383Z,99718.90
2022-12-04T08:19:05.195Z,99717.92
2022-12-04T08:21:12.905Z,99714.91
2022-12-04T08:23:17.658Z,99711.27
2022-12-04T08:25:22.399Z,99708.24
2022-12-04T08:27:27.036Z,99701.42
2022-12-04T08:29:31.777Z,99700.98
2022-12-04T08:31:37.288Z,99696.70
2022-12-04T08:33:43.516Z,99695.58
2022-12-04T08:35:48.206Z,99691.58
2022-12-04T08:37:52.900Z,99691.42
2022-12-04T08:39:57.840Z,99700.82
2022-12-04T08:42:02.670Z,99702.10
2022-12-04T08:44:07.691Z,99704.50
2022-12-04T08:46:14.301Z,99700.91
2022-12-04T08:48:19.145Z,99702.91
2022-12-04T08:50:23.975Z,99704.41
2022-12-04T08:52:28.653Z,99710.83
2022-12-04T08:54:36.183Z,99710.25
2022-12-04T08:56:41.607Z,99708.90
2022-12-04T08:58:47.481Z,99714.06
2022-12-04T09:00:52.926Z,99715.17
2022-12-04T09:02:58.081Z,99712.27
2022-12-04T09:05:04.422Z,99716.02
2022-12-04T09:07:10.067Z,99723.98
2022-12-04T09:09:16.494Z,99713.96
2022-12-04T09:11:24.585Z,99710.67
2022-12-04T09:13:32.096Z,99708.65
2022-12-04T09:15:40.687Z,99707.35
2022-12-04T09:17:46.645Z,99714.09
2022-12-04T09:19:57.878Z,99710.92
2022-12-04T09:22:07.247Z,99713.61
2022-12-04T09:24:13.471Z,99715.20
2022-12-04T09:26:25.508Z,99711.60
2022-12-04T09:28:31.951Z,99712.55
2022-12-04T09:30:37.951Z,99705.48
2022-12-04T09:32:44.245Z,99704.77
2022-12-04T09:34:52.774Z,99692.70
2022-12-04T09:36:58.778Z,99691.50
2022-12-04T09:39:12.529Z,99698.07
2022-12-04T09:41:34.179Z,99703.58
2022-12-04T09:43:51.346Z,99698.79
2022-12-04T09:46:05.581Z,99695.80
2022-12-04T09:48:14.575Z,99703.36
2022-12-04T09:50:24.345Z,99700.20
2022-12-04T09:52:46.371Z,99695.29
2022-12-04T09:54:56.374Z,99694.80
2022-12-04T09:57:13.003Z,99699.63
2022-12-04T09:59:24.331Z,99697.11
2022-12-04T10:01:40.110Z,99695.95
2022-12-04T10:03:50.508Z,99698.59
2022-12-04T10:06:08.681Z,99695.70
2022-12-04T10:08:21.231Z,99686.31
2022-12-04T10:10:36.960Z,99686.13
2022-12-04T10:12:53.621Z,99686.24
2022-12-04T10:15:12.036Z,99684.40
2022-12-04T10:17:35.391Z,99685.45
2022-12-04T10:19:53.143Z,99680.60
2022-12-04T10:22:11.969Z,99677.48
2022-12-04T10:24:39.422Z,99679.69
2022-12-04T10:26:47.417Z,99675.59
2022-12-04T10:28:56.773Z,99673.38
2022-12-04T10:31:04.440Z,99674.14
2022-12-04T10:33:19.384Z,99672.77
2022-12-04T10:35:27.044Z,99663.98
2022-12-04T10:37:39.386Z,99671.72
2022-12-04T10:39:50.212Z,99672.70
2022-12-04T10:42:01.484Z,99672.04
2022-12-04T10:44:09.332Z,99675.13
2022-12-04T10:46:19.984Z,99678.84
2022-12-04T10:48:32.550Z,99678.45
2022-12-04T10:50:37.627Z,99676.21
2022-12-04T10:52:42.471Z,99676.58
2022-12-04T10:54:51.011Z,99668.96
2022-12-04T10:56:58.352Z,99669.61
2022-12-04T10:59:05.698Z,99668.17
2022-12-04T11:01:14.190Z,99664.33
2022-12-04T11:03:28.515Z,99659.54
2022-12-04T11:05:38.799Z,99660.59
2022-12-04T11:07:48.540Z,99659.34
2022-12-04T11:10:05.884Z,99652.66
2022-12-04T11:12:19.258Z,99652.92
2022-12-04T11:14:25.152Z,99648.56
2022-12-04T11:16:37.367Z,99648.34
2022-12-04T11:18:52.446Z,99642.35
2022-12-04T11:21:00.057Z,99639.89
2022-12-04T11:23:06.371Z,99637.17
2022-12-04T11:25:19.950Z,99632.41
2022-12-04T11:27:29.206Z,99629.38
2022-12-04T11:29:37.759Z,99628.13
2022-12-04T11:31:54.724Z,99630.67
2022-12-04T11:34:06.650Z,99629.45
2022-12-04T11:36:22.604Z,99628.15
2022-12-04T11:38:33.946Z,99620.91
2022-12-04T11:40:46.510Z,99613.77
2022-12-04T11:43:04.685Z,99615.31
2022-12-04T11:45:21.790Z,99616.14
2022-12-04T11:47:30.495Z,99609.71
2022-12-04T11:49:43.554Z,99611.06
2022-12-04T11:52:02.738Z,99607.27
2022-12-04T11:54:22.349Z,99604.52
2022-12-04T11:56:42.601Z,99602.35
2022-12-04T11:59:10.103Z,99600.64
2022-12-04T12:01:33.995Z,99598.58
2022-12-04T12:03:47.763Z,99598.49
2022-12-04T12:06:15.304Z,99599.70
2022-12-04T12:08:29.844Z,99601.71
2022-12-04T12:10:45.665Z,99599.89
2022-12-04T12:13:00.466Z,99599.20
2022-12-04T12:15:14.187Z,99596.06
2022-12-04T12:17:28.350Z,99597.06
2022-12-04T12:19:48.072Z,99594.27
2022-12-04T12:22:05.164Z,99595.96
2022-12-04T12:24:29.794Z,99600.76
2022-12-04T12:26:42.678Z,99601.81
2022-12-04T12:29:16.368Z,99602.88
2022-12-04T12:31:58.798Z,99592.91
2022-12-04T12:34:09.610Z,99589.35
2022-12-04T12:36:16.462Z,99586.10
2022-12-04T12:38:27.183Z,99584.69
2022-12-04T12:40:39.136Z,99581.21
2022-12-04T12:42:58.490Z,99575.18
2022-12-04T12:45:22.521Z,99571.61
2022-12-04T12:47:37.984Z,99565.73
2022-12-04T12:49:52.821Z,99571.21
2022-12-04T12:52:05.339Z,99568.17
2022-12-04T12:54:24.529Z,99570.71
2022-12-04T12:56:46.158Z,99568.88
2022-12-04T12:59:01.281Z,99568.02
2022-12-04T13:03:45.767Z,99565.20
2022-12-04T13:05:55.568Z,99567.55
2022-12-04T13:08:13.969Z,99566.59
2022-12-04T13:10:24.891Z,99569.46
2022-12-04T13:12:34.956Z,99570.29
2022-12-04T13:14:41.626Z,99570.61
2022-12-04T13:16:53.980Z,99571.70
2022-12-04T13:19:08.652Z,99570.88
2022-12-04T13:21:28.784Z,99573.98
2022-12-04T13:23:48.244Z,99578.31
2022-12-04T13:26:05.101Z,99578.02
2022-12-04T13:28:24.969Z,99577.81
2022-12-04T13:30:42.448Z,99574.77
2022-12-04T13:33:11.525Z,99573.39
2022-12-04T13:35:28.529Z,99574.91
2022-12-04T13:38:04.740Z,99572.55
2022-12-04T13:40:36.299Z,99575.05
2022-12-04T13:42:41.694Z,99577.75
2022-12-04T13:44:56.165Z,99579.94
2022-12-04T13:47:04.558Z,99577.77
2022-12-04T13:49:26.680Z,99578.67
2022-12-04T13:51:39.614Z,99577.39
2022-12-04T13:53:44.970Z,99578.84
2022-12-04T13:55:56.935Z,99576.52
2022-12-04T13:58:04.280Z,99574.89
2022-12-04T14:00:28.229Z,99581.33
2022-12-04T14:02:34.906Z,99585.17
2022-12-04T14:04:45.705Z,99579.27
2022-12-04T14:06:53.295Z,99581.31
2022-12-04T14:09:01.532Z,99585.03
2022-12-04T14:11:12.247Z,99589.77
2022-12-04T14:13:24.973Z,99593.69
2022-12-04T14:15:32.836Z,99595.77
2022-12-04T14:17:40.019Z,99596.86
2022-12-04T14:19:52.435Z,99599.63
2022-12-04T14:21:58.389Z,99601.14
2022-12-04T14:24:15.447Z,99594.89
2022-12-04T14:26:48.797Z,99597.33
2022-12-04T14:29:04.913Z,99600.02
2022-12-04T14:31:30.396Z,99600.00
2022-12-04T14:33:43.166Z,99600.58
2022-12-04T14:35:56.430Z,99604.66
2022-12-04T14:38:06.336Z,99602.04
2022-12-04T14:40:23.528Z,99597.02
2022-12-04T14:42:39.028Z,99595.46
2022-12-04T14:44:46.591Z,99604.91
2022-12-04T14:47:01.210Z,99595.96
2022-12-04T14:49:23.129Z,99597.05
2022-12-04T14:51:34.325Z,99590.15
2022-12-04T14:53:46.762Z,99587.02
2022-12-04T14:56:07.781Z,99583.25
2022-12-04T14:58:19.707Z,99579.48
2022-12-04T15:00:26.488Z,99581.43
2022-12-04T15:02:40.350Z,99574.77
2022-12-04T15:04:47.645Z,99574.49
2022-12-04T15:07:00.542Z,99573.20
2022-12-04T15:09:17.124Z,99574.68
2022-12-04T15:11:23.275Z,99571.50
2022-12-04T15:13:31.386Z,99570.29
2022-12-04T15:15:45.015Z,99569.27
2022-12-04T15:18:04.787Z,99567.09
2022-12-04T15:20:20.318Z,99565.34
2022-12-04T15:22:31.019Z,99564.64
2022-12-04T15:24:38.193Z,99557.33
2022-12-04T15:26:44.369Z,99559.29
2022-12-04T15:28:58.830Z,99551.17
2022-12-04T15:31:10.275Z,99555.56
2022-12-04T15:33:21.738Z,99559.12
2022-12-04T15:35:33.359Z,99560.23
2022-12-04T15:37:41.643Z,99562.52
2022-12-04T15:39:52.466Z,99565.98
2022-12-04T15:42:15.764Z,99565.98
2022-12-04T15:44:31.619Z,99563.77
2022-12-04T15:46:38.291Z,99560.21
2022-12-04T15:48:47.843Z,99555.29
2022-12-04T15:51:03.399Z,99554.02
2022-12-04T15:53:16.463Z,99556.42
2022-12-04T15:55:24.524Z,99557.58
2022-12-04T15:57:39.072Z,99560.08
2022-12-04T15:59:52.007Z,99564.34
2022-12-04T16:02:03.630Z,99569.86
2022-12-04T16:04:22.358Z,99573.37
2022-12-04T16:06:32.567Z,99573.16
2022-12-04T16:08:40.781Z,99573.30
2022-12-04T16:10:59.402Z,99575.77
2022-12-04T16:13:07.871Z,99573.76
2022-12-04T16:15:19.098Z,99576.77
2022-12-04T16:17:29.718Z,99572.05
2022-12-04T16:19:39.219Z,99571.48
2022-12-04T16:21:47.322Z,99576.26
2022-12-04T16:23:53.362Z,99580.77
2022-12-04T16:25:59.451Z,99583.52
2022-12-04T16:28:06.415Z,99585.59
2022-12-04T16:30:18.867Z,99585.39
2022-12-04T16:32:33.580Z,99589.17
2022-12-04T16:34:41.364Z,99598.45
2022-12-04T16:36:48.721Z,99603.36
2022-12-04T16:38:54.284Z,99606.88
2022-12-04T16:41:01.194Z,99608.91
2022-12-04T16:43:07.934Z,99609.23
2022-12-04T16:45:24.326Z,99608.90
2022-12-04T16:47:31.318Z,99609.48
2022-12-04T16:49:43.655Z,99612.77
2022-12-04T16:51:50.801Z,99616.18
2022-12-04T16:53:57.680Z,99617.36
2022-12-04T16:56:07.467Z,99622.81
2022-12-04T16:58:14.597Z,99623.47
2022-12-04T17:00:22.529Z,99626.16
2022-12-04T17:02:29.054Z,99625.14
2022-12-04T17:04:35.630Z,99621.85
2022-12-04T17:06:44.139Z,99620.09
2022-12-04T17:08:50.374Z,99616.28
2022-12-04T17:10:57.755Z,99615.94
2022-12-04T17:13:03.871Z,99611.58
2022-12-04T17:15:10.815Z,99607.77
2022-12-04T17:17:19.085Z,99602.77
2022-12-04T17:19:25.489Z,99598.08
2022-12-04T17:21:31.480Z,99596.88
2022-12-04T17:23:39.582Z,99601.61
2022-12-04T17:25:46.421Z,99600.81
2022-12-04T17:27:57.024Z,99600.02
2022-12-04T17:30:03.834Z,99605.66
2022-12-04T17:32:10.599Z,99605.42
2022-12-04T17:34:18.511Z,99607.42
2022-12-04T17:36:27.275Z,99608.73
2022-12-04T17:38:38.041Z,99610.45
2022-12-04T17:40:45.993Z,99607.93
2022-12-04T17:42:51.337Z,99611.17
2022-12-04T17:44:58.193Z,99610.87
2022-12-04T17:47:07.783Z,99611.05
2022-12-04T17:49:18.701Z,99606.20
2022-12-04T17:51:25.762Z,99604.13
2022-12-04T17:53:31.070Z,99609.14
2022-12-04T17:55:40.465Z,99611.74
2022-12-04T17:57:46.757Z,99615.58
2022-12-04T17:59:53.522Z,99616.98
2022-12-04T18:01:59.548Z,99614.55
2022-12-04T18:04:08.260Z,99616.64
2022-12-04T18:06:17.832Z,99613.70
2022-12-04T18:08:28.918Z,99612.88
2022-12-04T18:10:38.382Z,99612.35
2022-12-04T18:12:45.469Z,99613.52
2022-12-04T18:14:53.622Z,99614.11
2022-12-04T18:17:00.690Z,99616.95
2022-12-04T18:19:09.018Z,99619.84
2022-12-04T18:21:15.276Z,99621.47
2022-12-04T18:23:26.221Z,99619.50
2022-12-04T18:25:32.322Z,99617.98
2022-12-04T18:27:42.067Z,99619.54
2022-12-04T18:29:49.023Z,99623.00
2022-12-04T18:31:55.957Z,99623.52
2022-12-04T18:34:05.528Z,99616.33
2022-12-04T18:36:17.428Z,99621.58
2022-12-04T18:38:29.952Z,99618.61
2022-12-04T18:40:37.913Z,99612.23
2022-12-04T18:42:45.598Z,99608.48
2022-12-04T18:44:52.418Z,99606.41
2022-12-04T18:46:59.283Z,99609.62
2022-12-04T18:49:08.022Z,99608.98
2022-12-04T18:51:24.339Z,99606.65
2022-12-04T18:53:30.914Z,99606.09
2022-12-04T18:55:39.153Z,99608.26
2022-12-04T18:57:44.643Z,99609.05
2022-12-04T18:59:50.919Z,99604.15
2022-12-04T19:01:58.161Z,99597.65
2022-12-04T19:04:07.284Z,99594.77
2022-12-04T19:06:15.305Z,99604.32
2022-12-04T19:08:28.465Z,99600.95
2022-12-04T19:10:40.412Z,99602.71
2022-12-04T19:12:47.247Z,99603.71
2022-12-04T19:14:54.818Z,99597.06
2022-12-04T19:17:00.064Z,99589.83
2022-12-04T19:19:07.309Z,99586.80
2022-12-04T19:21:24.476Z,99590.25
2022-12-04T19:23:33.994Z,99594.88
2022-12-04T19:25:41.702Z,99588.25
2022-12-04T19:27:48.962Z,99586.00
2022-12-04T19:29:56.953Z,99585.73
2022-12-04T19:32:04.660Z,99584.15
2022-12-04T19:34:11.183Z,99583.89
2022-12-04T19:36:18.807Z,99578.96
2022-12-04T19:38:25.945Z,99578.27
2022-12-04T19:40:35.385Z,99576.61
2022-12-04T19:42:42.927Z,99580.00
2022-12-04T19:44:50.886Z,99580.36
2022-12-04T19:46:57.941Z,99583.37
2022-12-04T19:49:09.882Z,99588.80
2022-12-04T19:51:18.591Z,99586.21
2022-12-04T19:53:26.251Z,99584.88
2022-12-04T19:55:36.004Z,99588.07
2022-12-04T19:57:43.973Z,99584.64
2022-12-04T19:59:51.463Z,99583.19
2022-12-04T20:02:02.431Z,99578.44
2022-12-04T20:04:10.230Z,99574.20
2022-12-04T20:06:19.321Z,99570.91
2022-12-04T20:08:41.098Z,99572.77
2022-12-04T20:10:47.998Z,99566.33
2022-12-04T20:12:56.610Z,99566.69
2022-12-04T20:15:05.437Z,99566.66
2022-12-04T20:17:11.892Z,99566.86
2022-12-04T20:19:19.628Z,99562.57
2022-12-04T20:21:27.023Z,99559.10
2022-12-04T20:23:35.441Z,99553.48
2022-12-04T20:25:43.355Z,99549.66
2022-12-04T20:27:52.414Z,99543.03
2022-12-04T20:30:00.903Z,99538.27
2022-12-04T20:32:09.027Z,99542.21
2022-12-04T20:34:17.783Z,99547.06
2022-12-04T20:36:27.019Z,99542.95
2022-12-04T20:38:34.042Z,99543.85
2022-12-04T20:40:40.935Z,99542.02
2022-12-04T20:42:47.281Z,99544.86
2022-12-04T20:44:54.660Z,99541.26
2022-12-04T20:47:03.874Z,99533.85
2022-12-04T20:49:17.232Z,99526.98
2022-12-04T20:51:28.812Z,99515.10
2022-12-04T20:53:34.947Z,99512.02
2022-12-04T20:55:52.617Z,99512.88
2022-12-04T20:58:04.493Z,99516.17
2022-12-04T21:00:12.492Z,99516.96
2022-12-04T21:02:18.224Z,99512.87
2022-12-04T21:04:24.155Z,99506.98
2022-12-04T21:06:35.051Z,99505.74
2022-12-04T21:08:43.574Z,99506.20
2022-12-04T21:10:49.070Z,99502.77
2022-12-04T21:12:57.282Z,99504.32
2022-12-04T21:15:02.994Z,99506.20
2022-12-04T21:17:10.538Z,99504.85
2022-12-04T21:19:20.748Z,99505.05
2022-12-04T21:21:30.750Z,99493.33
2022-12-04T21:23:35.976Z,99493.70
2022-12-04T21:25:40.803Z,99485.45
2022-12-04T21:27:45.837Z,99486.89
2022-12-04T21:29:50.757Z,99480.45
2022-12-04T21:31:56.021Z,99474.80
2022-12-04T21:34:04.252Z,99483.99
2022-12-04T21:36:10.785Z,99483.96
2022-12-04T21:38:16.048Z,99478.31
2022-12-04T21:40:20.928Z,99486.04
2022-12-04T21:42:25.854Z,99484.19
2022-12-04T21:44:30.674Z,99482.84
2022-12-04T21:46:35.622Z,99485.19
2022-12-04T21:48:40.500Z,99478.77
2022-12-04T21:50:45.236Z,99479.56
2022-12-04T21:52:49.855Z,99481.33
2022-12-04T21:54:55.324Z,99471.61
2022-12-04T21:57:00.371Z,99467.92
2022-12-04T21:59:05.483Z,99453.29
2022-12-04T22:01:12.528Z,99447.73
2022-12-04T22:03:17.921Z,99439.35
2022-12-04T22:05:22.906Z,99433.87
2022-12-04T22:07:27.607Z,99438.78
2022-12-04T22:09:32.477Z,99441.23
2022-12-04T22:11:37.726Z,99446.18
2022-12-04T22:13:42.783Z,99439.21
2022-12-04T22:15:47.606Z,99441.80
2022-12-04T22:17:52.515Z,99435.95
2022-12-04T22:19:57.528Z,99436.94
2022-12-04T22:22:02.631Z,99438.11
2022-12-04T22:24:09.211Z,99442.88
2022-12-04T22:26:15.693Z,99433.41
2022-12-04T22:28:20.454Z,99424.22
2022-12-04T22:30:25.694Z,99417.09
2022-12-04T22:32:30.338Z,99416.64
2022-12-04T22:34:35.301Z,99401.30
2022-12-04T22:36:40.023Z,99395.02
2022-12-04T22:39:05.889Z,99377.16
2022-12-04T22:41:11.799Z,99372.61
2022-12-04T22:43:16.422Z,99375.42
2022-12-04T22:45:21.171Z,99371.33
2022-12-04T22:47:25.961Z,99367.91
2022-12-04T22:49:30.600Z,99362.17
2022-12-04T22:51:35.268Z,99363.69
2022-12-04T22:53:41.781Z,99357.77
2022-12-04T22:55:46.415Z,99367.79
2022-12-04T22:57:51.063Z,99369.96
2022-12-04T22:59:56.043Z,99359.79
2022-12-04T23:02:00.841Z,99359.15
2022-12-04T23:04:05.708Z,99358.53
2022-12-04T23:06:11.220Z,99354.66
2022-12-04T23:08:16.083Z,99361.04
2022-12-04T23:10:20.967Z,99374.65
2022-12-04T23:12:25.690Z,99368.52
2022-12-04T23:14:30.474Z,99360.88
2022-12-04T23:16:38.112Z,99349.14
2022-12-04T23:18:42.872Z,99345.75
2022-12-04T23:20:47.540Z,99335.20
2022-12-04T23:22:52.254Z,99329.45
2022-12-04T23:24:56.904Z,99327.31
2022-12-04T23:27:02.881Z,99331.41
2022-12-04T23:29:29.582Z,99325.98
2022-12-04T23:31:33.878Z,99328.04
2022-12-04T23:33:38.947Z,99330.04
2022-12-04T23:35:44.007Z,99323.96
2022-12-04T23:37:48.689Z,99333.85
2022-12-04T23:39:53.479Z,99340.67
2022-12-04T23:41:58.149Z,99342.14
2022-12-04T23:44:02.817Z,99337.19
2022-12-04T23:46:11.233Z,99334.33
2022-12-04T23:48:16.279Z,99348.33
2022-12-04T23:50:21.169Z,99350.55
2022-12-04T23:52:25.782Z,99357.87
2022-12-04T23:54:30.570Z,99370.86
2022-12-04T23:56:35.306Z,99366.93
2022-12-04T23:58:41.115Z,99365.84
